sensor_id;sensor_type;location;lat;lon;timestamp;temperature;humidity
71254;HTU21D;59019;47.638;18.966;2023-07-30T00:01:25;21.22;83.41
71254;HTU21D;59019;47.638;18.966;2023-07-30T00:03:51;21.16;83.89
71254;HTU21D;59019;47.638;18.966;2023-07-30T00:06:16;21.11;84.00
71254;HTU21D;59019;47.638;18.966;2023-07-30T00:08:42;21.13;84.29
71254;HTU21D;59019;47.638;18.966;2023-07-30T00:11:08;21.05;84.37
71254;HTU21D;59019;47.638;18.966;2023-07-30T00:13:33;21.01;84.58
71254;HTU21D;59019;47.638;18.966;2023-07-30T00:15:58;21.00;84.84
71254;HTU21D;59019;47.638;18.966;2023-07-30T00:18:24;21.01;84.53
71254;HTU21D;59019;47.638;18.966;2023-07-30T00:20:49;21.04;84.01
71254;HTU21D;59019;47.638;18.966;2023-07-30T00:23:15;21.05;83.97
71254;HTU21D;59019;47.638;18.966;2023-07-30T00:25:40;21.05;84.24
71254;HTU21D;59019;47.638;18.966;2023-07-30T00:28:06;21.03;84.52
71254;HTU21D;59019;47.638;18.966;2023-07-30T00:30:31;20.92;85.11
71254;HTU21D;59019;47.638;18.966;2023-07-30T00:32:57;20.84;84.81
71254;HTU21D;59019;47.638;18.966;2023-07-30T00:35:22;20.77;85.23
71254;HTU21D;59019;47.638;18.966;2023-07-30T00:37:48;20.75;85.33
71254;HTU21D;59019;47.638;18.966;2023-07-30T00:40:13;20.84;84.92
71254;HTU21D;59019;47.638;18.966;2023-07-30T00:42:39;20.84;84.90
71254;HTU21D;59019;47.638;18.966;2023-07-30T00:45:05;20.79;85.45
71254;HTU21D;59019;47.638;18.966;2023-07-30T00:47:31;20.79;85.42
71254;HTU21D;59019;47.638;18.966;2023-07-30T00:49:57;20.76;85.56
71254;HTU21D;59019;47.638;18.966;2023-07-30T00:52:23;20.78;85.29
71254;HTU21D;59019;47.638;18.966;2023-07-30T00:54:52;20.73;85.47
71254;HTU21D;59019;47.638;18.966;2023-07-30T00:57:19;20.76;85.39
71254;HTU21D;59019;47.638;18.966;2023-07-30T00:59:46;20.72;85.58
71254;HTU21D;59019;47.638;18.966;2023-07-30T01:02:11;20.73;85.81
71254;HTU21D;59019;47.638;18.966;2023-07-30T01:04:37;20.73;85.64
71254;HTU21D;59019;47.638;18.966;2023-07-30T01:07:05;20.72;85.64
71254;HTU21D;59019;47.638;18.966;2023-07-30T01:09:31;20.76;85.71
71254;HTU21D;59019;47.638;18.966;2023-07-30T01:11:58;20.75;86.19
71254;HTU21D;59019;47.638;18.966;2023-07-30T01:14:24;20.78;85.64
71254;HTU21D;59019;47.638;18.966;2023-07-30T01:16:52;20.81;85.26
71254;HTU21D;59019;47.638;18.966;2023-07-30T01:19:17;20.84;85.23
71254;HTU21D;59019;47.638;18.966;2023-07-30T01:21:43;20.81;85.29
71254;HTU21D;59019;47.638;18.966;2023-07-30T01:24:08;20.85;85.35
71254;HTU21D;59019;47.638;18.966;2023-07-30T01:26:43;20.86;85.74
71254;HTU21D;59019;47.638;18.966;2023-07-30T01:29:14;20.86;85.77
71254;HTU21D;59019;47.638;18.966;2023-07-30T01:31:43;20.69;86.51
71254;HTU21D;59019;47.638;18.966;2023-07-30T01:34:09;20.71;86.71
71254;HTU21D;59019;47.638;18.966;2023-07-30T01:36:37;20.59;87.15
71254;HTU21D;59019;47.638;18.966;2023-07-30T01:39:03;20.48;87.69
71254;HTU21D;59019;47.638;18.966;2023-07-30T01:41:29;20.41;88.04
71254;HTU21D;59019;47.638;18.966;2023-07-30T01:43:55;20.41;88.13
71254;HTU21D;59019;47.638;18.966;2023-07-30T01:46:20;20.37;88.26
71254;HTU21D;59019;47.638;18.966;2023-07-30T01:48:46;20.33;88.20
71254;HTU21D;59019;47.638;18.966;2023-07-30T01:51:12;20.34;88.21
71254;HTU21D;59019;47.638;18.966;2023-07-30T01:53:37;20.41;88.04
71254;HTU21D;59019;47.638;18.966;2023-07-30T01:56:03;20.25;88.61
71254;HTU21D;59019;47.638;18.966;2023-07-30T01:58:28;20.24;88.81
71254;HTU21D;59019;47.638;18.966;2023-07-30T02:00:54;20.21;88.85
71254;HTU21D;59019;47.638;18.966;2023-07-30T02:03:19;20.27;88.76
71254;HTU21D;59019;47.638;18.966;2023-07-30T02:05:45;20.30;88.86
71254;HTU21D;59019;47.638;18.966;2023-07-30T02:08:10;20.34;88.76
71254;HTU21D;59019;47.638;18.966;2023-07-30T02:10:38;20.33;88.99
71254;HTU21D;59019;47.638;18.966;2023-07-30T02:13:06;20.33;89.06
71254;HTU21D;59019;47.638;18.966;2023-07-30T02:15:32;20.36;88.54
71254;HTU21D;59019;47.638;18.966;2023-07-30T02:17:57;20.37;88.30
71254;HTU21D;59019;47.638;18.966;2023-07-30T02:20:23;20.49;88.07
71254;HTU21D;59019;47.638;18.966;2023-07-30T02:22:48;20.49;88.59
71254;HTU21D;59019;47.638;18.966;2023-07-30T02:25:14;20.49;89.11
71254;HTU21D;59019;47.638;18.966;2023-07-30T02:27:39;20.51;89.11
71254;HTU21D;59019;47.638;18.966;2023-07-30T02:30:05;20.47;90.55
71254;HTU21D;59019;47.638;18.966;2023-07-30T02:32:34;20.44;89.99
71254;HTU21D;59019;47.638;18.966;2023-07-30T02:34:59;20.41;88.60
71254;HTU21D;59019;47.638;18.966;2023-07-30T02:37:25;20.53;87.36
71254;HTU21D;59019;47.638;18.966;2023-07-30T02:39:50;20.62;86.80
71254;HTU21D;59019;47.638;18.966;2023-07-30T02:42:16;20.65;86.88
71254;HTU21D;59019;47.638;18.966;2023-07-30T02:44:41;20.70;86.49
71254;HTU21D;59019;47.638;18.966;2023-07-30T02:47:07;20.76;85.96
71254;HTU21D;59019;47.638;18.966;2023-07-30T02:49:32;20.89;85.63
71254;HTU21D;59019;47.638;18.966;2023-07-30T02:51:57;20.88;85.61
71254;HTU21D;59019;47.638;18.966;2023-07-30T02:54:23;20.92;85.30
71254;HTU21D;59019;47.638;18.966;2023-07-30T02:56:48;20.89;85.30
71254;HTU21D;59019;47.638;18.966;2023-07-30T02:59:14;20.93;85.00
71254;HTU21D;59019;47.638;18.966;2023-07-30T03:01:39;21.01;84.74
71254;HTU21D;59019;47.638;18.966;2023-07-30T03:04:05;21.02;84.49
71254;HTU21D;59019;47.638;18.966;2023-07-30T03:06:31;21.11;84.02
71254;HTU21D;59019;47.638;18.966;2023-07-30T03:08:56;21.16;83.79
71254;HTU21D;59019;47.638;18.966;2023-07-30T03:11:22;21.09;84.10
71254;HTU21D;59019;47.638;18.966;2023-07-30T03:13:48;21.11;84.17
71254;HTU21D;59019;47.638;18.966;2023-07-30T03:16:13;20.99;84.58
71254;HTU21D;59019;47.638;18.966;2023-07-30T03:18:39;20.92;85.06
71254;HTU21D;59019;47.638;18.966;2023-07-30T03:21:04;20.93;84.68
71254;HTU21D;59019;47.638;18.966;2023-07-30T03:23:30;20.95;84.74
71254;HTU21D;59019;47.638;18.966;2023-07-30T03:25:56;20.87;85.48
71254;HTU21D;59019;47.638;18.966;2023-07-30T03:28:22;20.84;86.46
71254;HTU21D;59019;47.638;18.966;2023-07-30T03:30:47;20.86;87.04
71254;HTU21D;59019;47.638;18.966;2023-07-30T03:33:13;20.85;87.86
71254;HTU21D;59019;47.638;18.966;2023-07-30T03:35:38;20.77;87.69
71254;HTU21D;59019;47.638;18.966;2023-07-30T03:38:04;20.64;88.48
71254;HTU21D;59019;47.638;18.966;2023-07-30T03:40:30;20.72;88.31
71254;HTU21D;59019;47.638;18.966;2023-07-30T03:42:55;20.68;88.35
71254;HTU21D;59019;47.638;18.966;2023-07-30T03:45:21;20.61;87.31
71254;HTU21D;59019;47.638;18.966;2023-07-30T03:47:46;20.69;86.81
71254;HTU21D;59019;47.638;18.966;2023-07-30T03:50:12;20.79;86.72
71254;HTU21D;59019;47.638;18.966;2023-07-30T03:52:37;20.87;86.26
71254;HTU21D;59019;47.638;18.966;2023-07-30T03:55:03;20.91;87.21
71254;HTU21D;59019;47.638;18.966;2023-07-30T03:57:29;20.92;88.57
71254;HTU21D;59019;47.638;18.966;2023-07-30T03:59:54;20.92;88.65
71254;HTU21D;59019;47.638;18.966;2023-07-30T04:02:20;20.95;88.84
71254;HTU21D;59019;47.638;18.966;2023-07-30T04:04:46;20.91;89.12
71254;HTU21D;59019;47.638;18.966;2023-07-30T04:07:13;20.78;90.36
71254;HTU21D;59019;47.638;18.966;2023-07-30T04:09:39;20.70;91.27
71254;HTU21D;59019;47.638;18.966;2023-07-30T04:12:05;20.63;90.57
71254;HTU21D;59019;47.638;18.966;2023-07-30T04:14:30;20.65;89.88
71254;HTU21D;59019;47.638;18.966;2023-07-30T04:16:56;20.73;89.19
71254;HTU21D;59019;47.638;18.966;2023-07-30T04:19:21;20.76;89.37
71254;HTU21D;59019;47.638;18.966;2023-07-30T04:21:47;20.85;88.89
71254;HTU21D;59019;47.638;18.966;2023-07-30T04:24:12;20.95;88.42
71254;HTU21D;59019;47.638;18.966;2023-07-30T04:26:38;21.01;88.73
71254;HTU21D;59019;47.638;18.966;2023-07-30T04:29:03;20.99;88.70
71254;HTU21D;59019;47.638;18.966;2023-07-30T04:31:29;21.04;88.83
71254;HTU21D;59019;47.638;18.966;2023-07-30T04:33:54;21.13;88.55
71254;HTU21D;59019;47.638;18.966;2023-07-30T04:36:20;21.21;87.89
71254;HTU21D;59019;47.638;18.966;2023-07-30T04:38:45;21.33;87.73
71254;HTU21D;59019;47.638;18.966;2023-07-30T04:41:11;21.33;88.85
71254;HTU21D;59019;47.638;18.966;2023-07-30T04:43:36;21.34;89.19
71254;HTU21D;59019;47.638;18.966;2023-07-30T04:46:02;21.31;89.66
71254;HTU21D;59019;47.638;18.966;2023-07-30T04:48:27;21.34;90.65
71254;HTU21D;59019;47.638;18.966;2023-07-30T04:50:53;21.24;90.98
71254;HTU21D;59019;47.638;18.966;2023-07-30T04:53:18;21.19;89.53
71254;HTU21D;59019;47.638;18.966;2023-07-30T04:55:45;21.16;89.49
71254;HTU21D;59019;47.638;18.966;2023-07-30T04:58:11;21.29;88.67
71254;HTU21D;59019;47.638;18.966;2023-07-30T05:00:36;21.31;88.26
71254;HTU21D;59019;47.638;18.966;2023-07-30T05:03:02;21.33;87.61
71254;HTU21D;59019;47.638;18.966;2023-07-30T05:05:28;21.44;88.55
71254;HTU21D;59019;47.638;18.966;2023-07-30T05:07:54;21.40;88.97
71254;HTU21D;59019;47.638;18.966;2023-07-30T05:10:19;21.50;88.51
71254;HTU21D;59019;47.638;18.966;2023-07-30T05:12:44;21.61;88.25
71254;HTU21D;59019;47.638;18.966;2023-07-30T05:15:10;21.61;88.23
71254;HTU21D;59019;47.638;18.966;2023-07-30T05:17:35;21.58;88.80
71254;HTU21D;59019;47.638;18.966;2023-07-30T05:20:01;21.53;88.42
71254;HTU21D;59019;47.638;18.966;2023-07-30T05:22:27;21.69;88.40
71254;HTU21D;59019;47.638;18.966;2023-07-30T05:24:52;21.77;87.88
71254;HTU21D;59019;47.638;18.966;2023-07-30T05:27:18;21.87;87.53
71254;HTU21D;59019;47.638;18.966;2023-07-30T05:29:43;21.97;89.49
71254;HTU21D;59019;47.638;18.966;2023-07-30T05:32:09;22.07;89.63
71254;HTU21D;59019;47.638;18.966;2023-07-30T05:34:34;22.07;89.38
71254;HTU21D;59019;47.638;18.966;2023-07-30T05:37:00;22.17;89.78
71254;HTU21D;59019;47.638;18.966;2023-07-30T05:39:25;22.23;89.29
71254;HTU21D;59019;47.638;18.966;2023-07-30T05:41:51;22.37;89.27
71254;HTU21D;59019;47.638;18.966;2023-07-30T05:44:16;22.44;88.91
71254;HTU21D;59019;47.638;18.966;2023-07-30T05:46:42;22.53;87.47
71254;HTU21D;59019;47.638;18.966;2023-07-30T05:49:08;22.58;87.64
71254;HTU21D;59019;47.638;18.966;2023-07-30T05:51:33;22.53;86.90
71254;HTU21D;59019;47.638;18.966;2023-07-30T05:53:59;22.43;87.62
71254;HTU21D;59019;47.638;18.966;2023-07-30T05:56:27;22.56;85.72
71254;HTU21D;59019;47.638;18.966;2023-07-30T05:58:53;22.68;86.63
71254;HTU21D;59019;47.638;18.966;2023-07-30T06:01:19;22.67;86.73
71254;HTU21D;59019;47.638;18.966;2023-07-30T06:03:45;22.72;86.96
71254;HTU21D;59019;47.638;18.966;2023-07-30T06:06:10;22.87;87.86
71254;HTU21D;59019;47.638;18.966;2023-07-30T06:08:36;23.00;86.25
71254;HTU21D;59019;47.638;18.966;2023-07-30T06:11:02;23.28;84.61
71254;HTU21D;59019;47.638;18.966;2023-07-30T06:13:31;23.49;83.13
71254;HTU21D;59019;47.638;18.966;2023-07-30T06:15:56;23.70;84.29
71254;HTU21D;59019;47.638;18.966;2023-07-30T06:18:22;23.75;83.02
71254;HTU21D;59019;47.638;18.966;2023-07-30T06:20:47;23.68;83.19
71254;HTU21D;59019;47.638;18.966;2023-07-30T06:23:13;23.62;83.45
71254;HTU21D;59019;47.638;18.966;2023-07-30T06:25:38;23.64;83.39
71254;HTU21D;59019;47.638;18.966;2023-07-30T06:28:04;23.70;83.03
71254;HTU21D;59019;47.638;18.966;2023-07-30T06:30:31;23.92;82.60
71254;HTU21D;59019;47.638;18.966;2023-07-30T06:32:57;24.08;81.49
71254;HTU21D;59019;47.638;18.966;2023-07-30T06:35:23;24.16;81.78
71254;HTU21D;59019;47.638;18.966;2023-07-30T06:37:49;24.38;81.82
71254;HTU21D;59019;47.638;18.966;2023-07-30T06:40:14;24.60;80.72
71254;HTU21D;59019;47.638;18.966;2023-07-30T06:42:40;24.84;80.18
71254;HTU21D;59019;47.638;18.966;2023-07-30T06:45:06;24.75;79.56
71254;HTU21D;59019;47.638;18.966;2023-07-30T06:47:31;24.77;79.43
71254;HTU21D;59019;47.638;18.966;2023-07-30T06:49:57;24.58;80.11
71254;HTU21D;59019;47.638;18.966;2023-07-30T06:52:22;24.58;80.47
71254;HTU21D;59019;47.638;18.966;2023-07-30T06:54:48;24.59;80.67
71254;HTU21D;59019;47.638;18.966;2023-07-30T06:57:13;24.55;81.28
71254;HTU21D;59019;47.638;18.966;2023-07-30T06:59:39;24.44;81.27
71254;HTU21D;59019;47.638;18.966;2023-07-30T07:02:04;24.33;81.78
71254;HTU21D;59019;47.638;18.966;2023-07-30T07:04:31;24.08;83.00
71254;HTU21D;59019;47.638;18.966;2023-07-30T07:06:56;23.82;83.05
71254;HTU21D;59019;47.638;18.966;2023-07-30T07:09:22;23.59;84.13
71254;HTU21D;59019;47.638;18.966;2023-07-30T07:11:47;23.52;84.54
71254;HTU21D;59019;47.638;18.966;2023-07-30T07:14:13;23.27;84.92
71254;HTU21D;59019;47.638;18.966;2023-07-30T07:16:38;23.09;85.72
71254;HTU21D;59019;47.638;18.966;2023-07-30T07:19:04;23.03;86.23
71254;HTU21D;59019;47.638;18.966;2023-07-30T07:21:29;22.93;86.80
71254;HTU21D;59019;47.638;18.966;2023-07-30T07:23:55;22.93;86.77
71254;HTU21D;59019;47.638;18.966;2023-07-30T07:26:21;22.91;87.00
71254;HTU21D;59019;47.638;18.966;2023-07-30T07:28:46;22.75;86.99
71254;HTU21D;59019;47.638;18.966;2023-07-30T07:31:12;22.71;87.82
71254;HTU21D;59019;47.638;18.966;2023-07-30T07:33:40;22.68;88.17
71254;HTU21D;59019;47.638;18.966;2023-07-30T07:36:07;22.61;88.99
71254;HTU21D;59019;47.638;18.966;2023-07-30T07:38:33;22.52;89.92
71254;HTU21D;59019;47.638;18.966;2023-07-30T07:41:02;22.35;90.68
71254;HTU21D;59019;47.638;18.966;2023-07-30T07:43:27;22.23;90.60
71254;HTU21D;59019;47.638;18.966;2023-07-30T07:45:53;22.03;91.35
71254;HTU21D;59019;47.638;18.966;2023-07-30T07:48:19;21.96;91.93
71254;HTU21D;59019;47.638;18.966;2023-07-30T07:50:45;21.94;92.35
71254;HTU21D;59019;47.638;18.966;2023-07-30T07:53:10;21.85;92.27
71254;HTU21D;59019;47.638;18.966;2023-07-30T07:55:36;21.78;93.02
71254;HTU21D;59019;47.638;18.966;2023-07-30T07:58:01;21.74;93.23
71254;HTU21D;59019;47.638;18.966;2023-07-30T08:00:27;21.62;94.20
71254;HTU21D;59019;47.638;18.966;2023-07-30T08:02:52;21.62;94.77
71254;HTU21D;59019;47.638;18.966;2023-07-30T08:05:18;21.57;94.99
71254;HTU21D;59019;47.638;18.966;2023-07-30T08:07:45;21.29;96.50
71254;HTU21D;59019;47.638;18.966;2023-07-30T08:10:11;21.24;97.38
71254;HTU21D;59019;47.638;18.966;2023-07-30T08:12:37;21.19;97.46
71254;HTU21D;59019;47.638;18.966;2023-07-30T08:15:02;21.21;97.45
71254;HTU21D;59019;47.638;18.966;2023-07-30T08:17:28;21.33;97.80
71254;HTU21D;59019;47.638;18.966;2023-07-30T08:19:54;21.50;98.30
71254;HTU21D;59019;47.638;18.966;2023-07-30T08:22:19;21.60;98.07
71254;HTU21D;59019;47.638;18.966;2023-07-30T08:24:45;21.65;97.80
71254;HTU21D;59019;47.638;18.966;2023-07-30T08:27:10;21.68;97.22
71254;HTU21D;59019;47.638;18.966;2023-07-30T08:29:36;21.85;96.70
71254;HTU21D;59019;47.638;18.966;2023-07-30T08:32:01;21.84;96.91
71254;HTU21D;59019;47.638;18.966;2023-07-30T08:34:27;21.80;97.69
71254;HTU21D;59019;47.638;18.966;2023-07-30T08:36:52;21.81;97.45
71254;HTU21D;59019;47.638;18.966;2023-07-30T08:39:18;21.79;97.03
71254;HTU21D;59019;47.638;18.966;2023-07-30T08:41:45;21.87;96.88
71254;HTU21D;59019;47.638;18.966;2023-07-30T08:44:10;21.97;96.69
71254;HTU21D;59019;47.638;18.966;2023-07-30T08:46:36;22.08;96.61
71254;HTU21D;59019;47.638;18.966;2023-07-30T08:49:01;22.19;96.81
71254;HTU21D;59019;47.638;18.966;2023-07-30T08:51:27;22.23;96.71
71254;HTU21D;59019;47.638;18.966;2023-07-30T08:53:54;22.19;97.32
71254;HTU21D;59019;47.638;18.966;2023-07-30T08:56:21;22.22;97.29
71254;HTU21D;59019;47.638;18.966;2023-07-30T08:58:47;22.28;97.04
71254;HTU21D;59019;47.638;18.966;2023-07-30T09:01:15;22.27;96.20
71254;HTU21D;59019;47.638;18.966;2023-07-30T09:03:42;22.46;94.95
71254;HTU21D;59019;47.638;18.966;2023-07-30T09:06:08;22.37;95.28
71254;HTU21D;59019;47.638;18.966;2023-07-30T09:08:33;22.41;94.78
71254;HTU21D;59019;47.638;18.966;2023-07-30T09:11:09;22.46;95.46
71254;HTU21D;59019;47.638;18.966;2023-07-30T09:13:39;22.54;95.10
71254;HTU21D;59019;47.638;18.966;2023-07-30T09:16:12;22.60;94.65
71254;HTU21D;59019;47.638;18.966;2023-07-30T09:18:47;22.70;94.94
71254;HTU21D;59019;47.638;18.966;2023-07-30T09:21:14;22.84;94.93
71254;HTU21D;59019;47.638;18.966;2023-07-30T09:23:46;22.92;94.96
71254;HTU21D;59019;47.638;18.966;2023-07-30T09:26:13;22.92;93.76
71254;HTU21D;59019;47.638;18.966;2023-07-30T09:28:39;23.01;94.05
71254;HTU21D;59019;47.638;18.966;2023-07-30T09:31:06;22.95;94.63
71254;HTU21D;59019;47.638;18.966;2023-07-30T09:33:33;22.94;93.44
71254;HTU21D;59019;47.638;18.966;2023-07-30T09:36:02;23.00;93.46
71254;HTU21D;59019;47.638;18.966;2023-07-30T09:38:28;23.03;93.00
71254;HTU21D;59019;47.638;18.966;2023-07-30T09:41:00;22.96;94.10
71254;HTU21D;59019;47.638;18.966;2023-07-30T09:43:32;22.93;94.09
71254;HTU21D;59019;47.638;18.966;2023-07-30T09:46:05;22.93;93.94
71254;HTU21D;59019;47.638;18.966;2023-07-30T09:48:32;22.97;93.97
71254;HTU21D;59019;47.638;18.966;2023-07-30T09:50:59;22.96;94.59
71254;HTU21D;59019;47.638;18.966;2023-07-30T09:53:25;22.96;94.73
71254;HTU21D;59019;47.638;18.966;2023-07-30T09:55:51;23.06;94.54
71254;HTU21D;59019;47.638;18.966;2023-07-30T09:58:17;23.02;94.26
71254;HTU21D;59019;47.638;18.966;2023-07-30T10:00:44;23.06;94.04
71254;HTU21D;59019;47.638;18.966;2023-07-30T10:03:12;23.08;94.33
71254;HTU21D;59019;47.638;18.966;2023-07-30T10:05:39;23.12;94.17
71254;HTU21D;59019;47.638;18.966;2023-07-30T10:08:09;23.13;93.78
71254;HTU21D;59019;47.638;18.966;2023-07-30T10:10:36;23.20;94.52
71254;HTU21D;59019;47.638;18.966;2023-07-30T10:13:05;23.17;94.20
71254;HTU21D;59019;47.638;18.966;2023-07-30T10:15:34;23.25;93.95
71254;HTU21D;59019;47.638;18.966;2023-07-30T10:18:00;23.20;94.89
71254;HTU21D;59019;47.638;18.966;2023-07-30T10:20:27;23.06;95.04
71254;HTU21D;59019;47.638;18.966;2023-07-30T10:22:55;22.85;95.39
71254;HTU21D;59019;47.638;18.966;2023-07-30T10:25:25;22.91;95.75
71254;HTU21D;59019;47.638;18.966;2023-07-30T10:27:52;22.92;94.46
71254;HTU21D;59019;47.638;18.966;2023-07-30T10:30:21;22.90;93.89
71254;HTU21D;59019;47.638;18.966;2023-07-30T10:38:34;22.79;94.36
71254;HTU21D;59019;47.638;18.966;2023-07-30T10:41:10;22.82;92.58
71254;HTU21D;59019;47.638;18.966;2023-07-30T10:43:42;22.79;93.54
71254;HTU21D;59019;47.638;18.966;2023-07-30T10:46:12;22.86;93.98
71254;HTU21D;59019;47.638;18.966;2023-07-30T10:48:39;22.90;94.33
71254;HTU21D;59019;47.638;18.966;2023-07-30T10:51:10;22.82;94.12
71254;HTU21D;59019;47.638;18.966;2023-07-30T10:53:36;22.83;94.34
71254;HTU21D;59019;47.638;18.966;2023-07-30T10:56:06;22.97;94.73
71254;HTU21D;59019;47.638;18.966;2023-07-30T10:58:33;23.10;94.08
71254;HTU21D;59019;47.638;18.966;2023-07-30T11:01:04;23.14;91.79
71254;HTU21D;59019;47.638;18.966;2023-07-30T11:03:30;22.97;92.68
71254;HTU21D;59019;47.638;18.966;2023-07-30T11:05:57;22.90;93.37
71254;HTU21D;59019;47.638;18.966;2023-07-30T11:08:36;22.93;92.39
71254;HTU21D;59019;47.638;18.966;2023-07-30T11:11:02;22.88;93.14
71254;HTU21D;59019;47.638;18.966;2023-07-30T11:13:28;22.79;92.63
71254;HTU21D;59019;47.638;18.966;2023-07-30T11:15:53;22.79;93.17
71254;HTU21D;59019;47.638;18.966;2023-07-30T11:18:19;22.76;93.37
71254;HTU21D;59019;47.638;18.966;2023-07-30T11:20:44;22.83;93.12
71254;HTU21D;59019;47.638;18.966;2023-07-30T11:23:37;23.03;93.09
71254;HTU21D;59019;47.638;18.966;2023-07-30T11:26:05;23.07;93.96
71254;HTU21D;59019;47.638;18.966;2023-07-30T11:31:09;23.01;93.23
71254;HTU21D;59019;47.638;18.966;2023-07-30T11:33:42;22.88;93.71
71254;HTU21D;59019;47.638;18.966;2023-07-30T11:36:10;22.68;94.28
71254;HTU21D;59019;47.638;18.966;2023-07-30T11:38:38;22.61;95.11
71254;HTU21D;59019;47.638;18.966;2023-07-30T11:41:04;22.52;95.34
71254;HTU21D;59019;47.638;18.966;2023-07-30T11:43:30;22.46;95.69
71254;HTU21D;59019;47.638;18.966;2023-07-30T11:48:32;22.47;96.21
71254;HTU21D;59019;47.638;18.966;2023-07-30T11:50:58;22.43;96.23
71254;HTU21D;59019;47.638;18.966;2023-07-30T11:53:44;22.43;96.49
71254;HTU21D;59019;47.638;18.966;2023-07-30T11:56:23;22.40;96.69
71254;HTU21D;59019;47.638;18.966;2023-07-30T11:58:53;22.38;96.84
71254;HTU21D;59019;47.638;18.966;2023-07-30T12:01:24;22.41;96.85
71254;HTU21D;59019;47.638;18.966;2023-07-30T12:03:50;22.25;97.31
71254;HTU21D;59019;47.638;18.966;2023-07-30T12:06:15;22.12;96.96
71254;HTU21D;59019;47.638;18.966;2023-07-30T12:08:42;22.07;96.59
71254;HTU21D;59019;47.638;18.966;2023-07-30T12:11:09;21.97;97.35
71254;HTU21D;59019;47.638;18.966;2023-07-30T12:13:44;21.80;97.26
71254;HTU21D;59019;47.638;18.966;2023-07-30T12:16:15;21.70;97.49
71254;HTU21D;59019;47.638;18.966;2023-07-30T12:18:41;21.61;98.27
71254;HTU21D;59019;47.638;18.966;2023-07-30T12:21:07;21.59;97.57
71254;HTU21D;59019;47.638;18.966;2023-07-30T12:23:34;21.66;97.61
71254;HTU21D;59019;47.638;18.966;2023-07-30T12:25:59;21.74;98.23
71254;HTU21D;59019;47.638;18.966;2023-07-30T12:28:25;21.69;96.75
71254;HTU21D;59019;47.638;18.966;2023-07-30T12:30:50;21.69;96.90
71254;HTU21D;59019;47.638;18.966;2023-07-30T12:33:16;21.84;97.21
71254;HTU21D;59019;47.638;18.966;2023-07-30T12:35:42;22.05;96.13
71254;HTU21D;59019;47.638;18.966;2023-07-30T12:38:07;22.19;96.56
71254;HTU21D;59019;47.638;18.966;2023-07-30T12:40:33;22.40;96.05
71254;HTU21D;59019;47.638;18.966;2023-07-30T12:43:03;22.55;95.19
71254;HTU21D;59019;47.638;18.966;2023-07-30T12:45:30;22.86;93.44
71254;HTU21D;59019;47.638;18.966;2023-07-30T12:47:56;23.03;92.65
71254;HTU21D;59019;47.638;18.966;2023-07-30T12:50:21;23.23;92.03
71254;HTU21D;59019;47.638;18.966;2023-07-30T12:52:47;23.57;91.72
71254;HTU21D;59019;47.638;18.966;2023-07-30T12:55:12;23.89;90.66
71254;HTU21D;59019;47.638;18.966;2023-07-30T12:57:39;24.12;89.10
71254;HTU21D;59019;47.638;18.966;2023-07-30T13:00:05;24.36;89.39
71254;HTU21D;59019;47.638;18.966;2023-07-30T13:02:31;24.68;88.64
71254;HTU21D;59019;47.638;18.966;2023-07-30T13:05:00;24.85;87.77
71254;HTU21D;59019;47.638;18.966;2023-07-30T13:07:26;24.62;87.41
71254;HTU21D;59019;47.638;18.966;2023-07-30T13:10:10;24.77;87.84
71254;HTU21D;59019;47.638;18.966;2023-07-30T13:12:36;25.53;87.40
71254;HTU21D;59019;47.638;18.966;2023-07-30T13:15:02;25.57;85.73
71254;HTU21D;59019;47.638;18.966;2023-07-30T13:17:28;25.89;85.23
71254;HTU21D;59019;47.638;18.966;2023-07-30T13:19:53;26.08;84.34
71254;HTU21D;59019;47.638;18.966;2023-07-30T13:22:19;26.02;83.19
71254;HTU21D;59019;47.638;18.966;2023-07-30T13:24:44;26.09;83.85
71254;HTU21D;59019;47.638;18.966;2023-07-30T13:27:10;26.10;82.81
71254;HTU21D;59019;47.638;18.966;2023-07-30T13:29:36;26.40;83.50
71254;HTU21D;59019;47.638;18.966;2023-07-30T13:32:01;26.39;82.60
71254;HTU21D;59019;47.638;18.966;2023-07-30T13:34:27;26.48;82.10
71254;HTU21D;59019;47.638;18.966;2023-07-30T13:36:52;26.72;82.73
71254;HTU21D;59019;47.638;18.966;2023-07-30T15:25:45;24.77;82.23
71254;HTU21D;59019;47.638;18.966;2023-07-30T15:28:11;24.65;83.07
71254;HTU21D;59019;47.638;18.966;2023-07-30T15:30:37;24.46;83.52
71254;HTU21D;59019;47.638;18.966;2023-07-30T15:33:03;24.28;84.16
71254;HTU21D;59019;47.638;18.966;2023-07-30T15:35:29;24.13;85.09
71254;HTU21D;59019;47.638;18.966;2023-07-30T15:37:54;23.88;85.46
71254;HTU21D;59019;47.638;18.966;2023-07-30T15:40:20;23.68;86.03
71254;HTU21D;59019;47.638;18.966;2023-07-30T15:42:45;23.53;86.89
71254;HTU21D;59019;47.638;18.966;2023-07-30T15:45:11;23.47;87.30
71254;HTU21D;59019;47.638;18.966;2023-07-30T15:47:36;23.42;88.00
71254;HTU21D;59019;47.638;18.966;2023-07-30T15:50:02;23.37;87.89
71254;HTU21D;59019;47.638;18.966;2023-07-30T15:52:28;23.25;88.67
71254;HTU21D;59019;47.638;18.966;2023-07-30T15:54:54;23.23;88.74
71254;HTU21D;59019;47.638;18.966;2023-07-30T15:57:19;23.18;89.33
71254;HTU21D;59019;47.638;18.966;2023-07-30T15:59:45;23.21;89.41
71254;HTU21D;59019;47.638;18.966;2023-07-30T16:02:11;23.11;89.80
71254;HTU21D;59019;47.638;18.966;2023-07-30T16:04:37;23.11;89.94
71254;HTU21D;59019;47.638;18.966;2023-07-30T16:07:02;23.18;89.71
71254;HTU21D;59019;47.638;18.966;2023-07-30T16:09:29;23.23;89.60
71254;HTU21D;59019;47.638;18.966;2023-07-30T16:11:54;23.15;89.94
71254;HTU21D;59019;47.638;18.966;2023-07-30T16:14:20;23.17;89.92
71254;HTU21D;59019;47.638;18.966;2023-07-30T16:16:47;23.21;89.95
71254;HTU21D;59019;47.638;18.966;2023-07-30T16:19:14;23.12;89.70
71254;HTU21D;59019;47.638;18.966;2023-07-30T16:21:40;23.09;89.94
71254;HTU21D;59019;47.638;18.966;2023-07-30T16:24:06;23.10;90.28
71254;HTU21D;59019;47.638;18.966;2023-07-30T16:26:33;23.10;90.28
71254;HTU21D;59019;47.638;18.966;2023-07-30T16:28:58;23.26;90.50
71254;HTU21D;59019;47.638;18.966;2023-07-30T16:31:24;23.65;87.96
71254;HTU21D;59019;47.638;18.966;2023-07-30T16:33:49;23.98;86.19
71254;HTU21D;59019;47.638;18.966;2023-07-30T16:36:15;24.00;84.75
71254;HTU21D;59019;47.638;18.966;2023-07-30T16:38:40;23.85;85.37
71254;HTU21D;59019;47.638;18.966;2023-07-30T16:41:07;23.53;86.42
71254;HTU21D;59019;47.638;18.966;2023-07-30T16:43:34;23.45;86.86
71254;HTU21D;59019;47.638;18.966;2023-07-30T16:46:00;23.32;86.92
71254;HTU21D;59019;47.638;18.966;2023-07-30T16:48:29;23.38;86.97
71254;HTU21D;59019;47.638;18.966;2023-07-30T16:50:55;23.28;87.01
71254;HTU21D;59019;47.638;18.966;2023-07-30T16:53:21;23.25;88.02
71254;HTU21D;59019;47.638;18.966;2023-07-30T16:55:46;23.18;88.11